sensor_id;sensor_type;location;lat;lon;timestamp;pressure;altitude;pressure_sealevel;temperature;humidity
33155;BME280;19511;42.682;23.332;2023-03-01T00:01:36;95653.56;;;5.86;100.00
33155;BME280;19511;42.682;23.332;2023-03-01T00:04:01;95659.19;;;5.94;100.00
33155;BME280;19511;42.682;23.332;2023-03-01T00:06:31;95540.84;;;5.26;100.00
33155;BME280;19511;42.682;23.332;2023-03-01T00:08:56;95627.69;;;5.87;100.00
33155;BME280;19511;42.682;23.332;2023-03-01T00:11:25;95633.13;;;5.84;100.00
33155;BME280;19511;42.682;23.332;2023-03-01T00:13:55;95657.50;;;5.85;100.00
33155;BME280;19511;42.682;23.332;2023-03-01T00:16:26;95624.41;;;5.78;100.00
33155;BME280;19511;42.682;23.332;2023-03-01T00:18:54;95644.78;;;5.77;100.00
33155;BME280;19511;42.682;23.332;2023-03-01T00:21:24;95642.16;;;5.84;100.00
33155;BME280;19511;42.682;23.332;2023-03-01T00:23:50;95633.81;;;5.77;100.00
33155;BME280;19511;42.682;23.332;2023-03-01T00:26:17;95522.84;;;5.05;100.00
33155;BME280;19511;42.682;23.332;2023-03-01T00:28:51;95637.31;;;5.74;100.00
33155;BME280;19511;42.682;23.332;2023-03-01T00:31:29;95612.34;;;5.60;100.00
33155;BME280;19511;42.682;23.332;2023-03-01T00:33:56;95607.28;;;5.62;100.00
33155;BME280;19511;42.682;23.332;2023-03-01T00:36:24;95621.84;;;5.66;100.00
33155;BME280;19511;42.682;23.332;2023-03-01T00:38:50;95532.81;;;5.13;100.00
33155;BME280;19511;42.682;23.332;2023-03-01T00:41:18;95606.22;;;5.70;100.00
33155;BME280;19511;42.682;23.332;2023-03-01T00:43:53;95617.22;;;5.70;100.00
33155;BME280;19511;42.682;23.332;2023-03-01T00:46:27;95600.53;;;5.55;100.00
33155;BME280;19511;42.682;23.332;2023-03-01T00:49:06;95523.53;;;4.98;100.00
33155;BME280;19511;42.682;23.332;2023-03-01T00:51:41;95515.19;;;4.91;100.00
33155;BME280;19511;42.682;23.332;2023-03-01T00:54:08;95578.22;;;5.34;100.00
33155;BME280;19511;42.682;23.332;2023-03-01T00:56:34;95601.25;;;5.52;100.00
33155;BME280;19511;42.682;23.332;2023-03-01T00:58:59;95544.25;;;5.19;100.00
33155;BME280;19511;42.682;23.332;2023-03-01T01:01:27;95487.16;;;4.78;100.00
33155;BME280;19511;42.682;23.332;2023-03-01T01:04:02;95602.41;;;5.51;100.00
33155;BME280;19511;42.682;23.332;2023-03-01T01:06:34;95507.19;;;4.82;100.00
33155;BME280;19511;42.682;23.332;2023-03-01T01:09:02;95527.28;;;4.90;100.00
33155;BME280;19511;42.682;23.332;2023-03-01T01:11:29;95617.59;;;5.45;100.00
33155;BME280;19511;42.682;23.332;2023-03-01T01:14:00;95490.25;;;4.77;100.00
33155;BME280;19511;42.682;23.332;2023-03-01T01:16:27;95619.06;;;5.39;100.00
33155;BME280;19511;42.682;23.332;2023-03-01T01:18:53;95573.28;;;5.20;100.00
33155;BME280;19511;42.682;23.332;2023-03-01T01:21:21;95482.22;;;4.64;100.00
33155;BME280;19511;42.682;23.332;2023-03-01T01:23:50;95586.00;;;5.32;100.00
33155;BME280;19511;42.682;23.332;2023-03-01T01:26:19;95593.06;;;5.33;100.00
33155;BME280;19511;42.682;23.332;2023-03-01T01:28:49;95612.03;;;5.42;100.00
33155;BME280;19511;42.682;23.332;2023-03-01T01:31:15;95585.03;;;5.20;100.00
33155;BME280;19511;42.682;23.332;2023-03-01T01:33:41;95496.19;;;4.59;100.00
33155;BME280;19511;42.682;23.332;2023-03-01T01:36:07;95609.59;;;5.36;100.00
33155;BME280;19511;42.682;23.332;2023-03-01T01:38:34;95625.28;;;5.36;100.00
33155;BME280;19511;42.682;23.332;2023-03-01T01:40:59;95587.28;;;5.15;100.00
33155;BME280;19511;42.682;23.332;2023-03-01T01:43:32;95597.22;;;5.23;100.00
33155;BME280;19511;42.682;23.332;2023-03-01T01:46:01;95627.81;;;5.48;100.00
33155;BME280;19511;42.682;23.332;2023-03-01T01:48:34;95629.41;;;5.49;100.00
33155;BME280;19511;42.682;23.332;2023-03-01T01:51:09;95614.47;;;5.47;100.00
33155;BME280;19511;42.682;23.332;2023-03-01T01:53:40;95619.91;;;5.43;100.00
33155;BME280;19511;42.682;23.332;2023-03-01T01:56:08;95519.38;;;4.85;100.00
33155;BME280;19511;42.682;23.332;2023-03-01T01:58:34;95581.97;;;5.26;100.00
33155;BME280;19511;42.682;23.332;2023-03-01T02:01:05;95615.28;;;5.47;100.00
33155;BME280;19511;42.682;23.332;2023-03-01T02:03:39;95595.59;;;5.42;100.00
33155;BME280;19511;42.682;23.332;2023-03-01T02:06:16;95600.69;;;5.43;100.00
33155;BME280;19511;42.682;23.332;2023-03-01T02:08:44;95583.38;;;5.39;100.00
33155;BME280;19511;42.682;23.332;2023-03-01T02:11:12;95578.66;;;5.36;100.00
33155;BME280;19511;42.682;23.332;2023-03-01T02:13:40;95593.03;;;5.52;100.00
33155;BME280;19511;42.682;23.332;2023-03-01T02:16:11;95565.78;;;5.40;100.00
33155;BME280;19511;42.682;23.332;2023-03-01T02:18:38;95557.78;;;5.31;100.00
33155;BME280;19511;42.682;23.332;2023-03-01T02:23:59;95597.34;;;5.53;100.00
33155;BME280;19511;42.682;23.332;2023-03-01T02:26:40;95590.16;;;5.45;100.00
33155;BME280;19511;42.682;23.332;2023-03-01T02:29:11;95589.38;;;5.45;100.00
33155;BME280;19511;42.682;23.332;2023-03-01T02:31:39;95589.31;;;5.41;100.00
33155;BME280;19511;42.682;23.332;2023-03-01T02:34:15;95597.66;;;5.48;100.00
33155;BME280;19511;42.682;23.332;2023-03-01T02:36:54;95601.44;;;5.40;100.00
33155;BME280;19511;42.682;23.332;2023-03-01T02:39:28;95600.47;;;5.52;100.00
33155;BME280;19511;42.682;23.332;2023-03-01T02:41:57;95608.94;;;5.43;100.00
33155;BME280;19511;42.682;23.332;2023-03-01T02:44:28;95601.31;;;5.56;100.00
33155;BME280;19511;42.682;23.332;2023-03-01T02:46:57;95601.13;;;5.45;100.00
33155;BME280;19511;42.682;23.332;2023-03-01T02:49:26;95604.06;;;5.33;100.00
33155;BME280;19511;42.682;23.332;2023-03-01T02:54:43;95508.84;;;4.87;100.00
33155;BME280;19511;42.682;23.332;2023-03-01T02:57:14;95602.28;;;5.44;100.00
33155;BME280;19511;42.682;23.332;2023-03-01T02:59:40;95587.53;;;5.29;100.00
33155;BME280;19511;42.682;23.332;2023-03-01T03:02:18;95494.09;;;4.72;100.00
33155;BME280;19511;42.682;23.332;2023-03-01T03:04:46;95603.63;;;5.31;100.00
33155;BME280;19511;42.682;23.332;2023-03-01T03:07:12;95500.22;;;4.65;100.00
33155;BME280;19511;42.682;23.332;2023-03-01T03:09:37;95593.22;;;5.40;100.00
33155;BME280;19511;42.682;23.332;2023-03-01T03:12:03;95591.63;;;5.39;100.00
33155;BME280;19511;42.682;23.332;2023-03-01T03:14:28;95582.91;;;5.33;100.00
33155;BME280;19511;42.682;23.332;2023-03-01T03:16:53;95596.50;;;5.26;100.00
33155;BME280;19511;42.682;23.332;2023-03-01T03:19:19;95612.72;;;5.35;100.00
33155;BME280;19511;42.682;23.332;2023-03-01T03:21:49;95601.06;;;5.18;100.00
33155;BME280;19511;42.682;23.332;2023-03-01T03:24:15;95509.81;;;4.75;100.00
33155;BME280;19511;42.682;23.332;2023-03-01T03:26:41;95613.88;;;5.34;100.00
33155;BME280;19511;42.682;23.332;2023-03-01T03:29:06;95619.22;;;5.27;100.00
33155;BME280;19511;42.682;23.332;2023-03-01T03:31:32;95585.50;;;5.03;100.00
33155;BME280;19511;42.682;23.332;2023-03-01T03:34:01;95593.91;;;5.14;100.00
33155;BME280;19511;42.682;23.332;2023-03-01T03:36:30;95612.13;;;5.26;100.00
33155;BME280;19511;42.682;23.332;2023-03-01T03:38:55;95498.16;;;4.58;100.00
33155;BME280;19511;42.682;23.332;2023-03-01T03:41:21;95594.47;;;5.23;100.00
33155;BME280;19511;42.682;23.332;2023-03-01T03:43:58;95609.47;;;5.29;100.00
33155;BME280;19511;42.682;23.332;2023-03-01T03:49:26;95615.75;;;5.30;100.00
33155;BME280;19511;42.682;23.332;2023-03-01T03:51:56;95589.59;;;5.13;100.00
33155;BME280;19511;42.682;23.332;2023-03-01T03:54:22;95519.19;;;4.54;100.00
33155;BME280;19511;42.682;23.332;2023-03-01T03:56:53;95623.38;;;5.17;100.00
33155;BME280;19511;42.682;23.332;2023-03-01T03:59:18;95626.59;;;5.22;100.00
33155;BME280;19511;42.682;23.332;2023-03-01T04:01:43;95619.53;;;5.21;100.00
33155;BME280;19511;42.682;23.332;2023-03-01T04:04:15;95622.34;;;5.25;100.00
33155;BME280;19511;42.682;23.332;2023-03-01T04:06:43;95624.69;;;5.27;100.00
33155;BME280;19511;42.682;23.332;2023-03-01T04:09:09;95626.22;;;5.24;100.00
33155;BME280;19511;42.682;23.332;2023-03-01T04:11:38;95606.84;;;5.13;100.00
33155;BME280;19511;42.682;23.332;2023-03-01T04:14:07;95495.00;;;4.37;100.00
33155;BME280;19511;42.682;23.332;2023-03-01T04:16:32;95605.84;;;5.02;100.00
33155;BME280;19511;42.682;23.332;2023-03-01T04:18:58;95454.50;;;4.07;100.00
33155;BME280;19511;42.682;23.332;2023-03-01T04:21:24;95608.38;;;5.11;100.00
33155;BME280;19511;42.682;23.332;2023-03-01T04:23:50;95520.16;;;4.43;100.00
33155;BME280;19511;42.682;23.332;2023-03-01T04:26:19;95609.75;;;5.01;100.00
33155;BME280;19511;42.682;23.332;2023-03-01T04:28:45;95625.41;;;5.00;100.00
33155;BME280;19511;42.682;23.332;2023-03-01T04:31:16;95507.78;;;4.29;100.00
33155;BME280;19511;42.682;23.332;2023-03-01T04:33:45;95639.75;;;5.13;100.00
33155;BME280;19511;42.682;23.332;2023-03-01T04:36:20;95634.19;;;5.10;100.00
33155;BME280;19511;42.682;23.332;2023-03-01T04:38:53;95622.72;;;5.04;100.00
33155;BME280;19511;42.682;23.332;2023-03-01T04:41:24;95623.91;;;5.03;100.00
33155;BME280;19511;42.682;23.332;2023-03-01T04:43:54;95615.66;;;5.03;100.00
33155;BME280;19511;42.682;23.332;2023-03-01T04:46:25;95618.25;;;4.96;100.00
33155;BME280;19511;42.682;23.332;2023-03-01T04:48:54;95604.56;;;4.96;100.00
33155;BME280;19511;42.682;23.332;2023-03-01T04:51:24;95604.13;;;4.94;100.00
33155;BME280;19511;42.682;23.332;2023-03-01T04:53:49;95609.81;;;5.04;100.00
33155;BME280;19511;42.682;23.332;2023-03-01T04:56:19;95604.41;;;4.88;100.00
33155;BME280;19511;42.682;23.332;2023-03-01T04:58:55;95540.41;;;4.57;100.00
33155;BME280;19511;42.682;23.332;2023-03-01T05:01:23;95613.94;;;4.95;100.00
33155;BME280;19511;42.682;23.332;2023-03-01T05:03:53;95599.66;;;4.85;100.00
33155;BME280;19511;42.682;23.332;2023-03-01T05:06:20;95590.94;;;4.80;100.00
33155;BME280;19511;42.682;23.332;2023-03-01T05:08:45;95501.34;;;4.21;100.00
33155;BME280;19511;42.682;23.332;2023-03-01T05:11:11;95621.94;;;5.03;100.00
33155;BME280;19511;42.682;23.332;2023-03-01T05:13:38;95504.97;;;4.25;100.00
33155;BME280;19511;42.682;23.332;2023-03-01T05:16:05;95595.56;;;4.76;100.00
33155;BME280;19511;42.682;23.332;2023-03-01T05:18:32;95613.38;;;4.85;100.00
33155;BME280;19511;42.682;23.332;2023-03-01T05:21:09;95621.84;;;5.00;100.00
33155;BME280;19511;42.682;23.332;2023-03-01T05:23:35;95619.78;;;4.93;100.00
33155;BME280;19511;42.682;23.332;2023-03-01T05:26:02;95626.03;;;4.94;100.00
33155;BME280;19511;42.682;23.332;2023-03-01T05:28:34;95617.13;;;4.97;100.00
33155;BME280;19511;42.682;23.332;2023-03-01T05:31:00;95608.75;;;4.89;100.00
33155;BME280;19511;42.682;23.332;2023-03-01T05:33:26;95628.28;;;5.07;100.00
33155;BME280;19511;42.682;23.332;2023-03-01T05:35:52;95627.19;;;5.12;100.00
33155;BME280;19511;42.682;23.332;2023-03-01T05:38:19;95616.22;;;5.12;100.00
33155;BME280;19511;42.682;23.332;2023-03-01T05:40:46;95609.75;;;5.01;100.00
33155;BME280;19511;42.682;23.332;2023-03-01T05:43:14;95630.66;;;5.09;100.00
33155;BME280;19511;42.682;23.332;2023-03-01T05:45:40;95628.41;;;5.15;100.00
33155;BME280;19511;42.682;23.332;2023-03-01T05:48:09;95523.34;;;4.45;100.00
33155;BME280;19511;42.682;23.332;2023-03-01T05:50:38;95611.41;;;5.05;100.00
33155;BME280;19511;42.682;23.332;2023-03-01T05:53:05;95636.72;;;5.18;100.00
33155;BME280;19511;42.682;23.332;2023-03-01T05:55:33;95633.91;;;5.15;100.00
33155;BME280;19511;42.682;23.332;2023-03-01T05:58:06;95625.13;;;5.05;100.00
33155;BME280;19511;42.682;23.332;2023-03-01T06:00:32;95640.91;;;5.12;100.00
33155;BME280;19511;42.682;23.332;2023-03-01T06:03:01;95644.09;;;5.14;100.00
33155;BME280;19511;42.682;23.332;2023-03-01T06:05:29;95546.88;;;4.49;100.00
33155;BME280;19511;42.682;23.332;2023-03-01T06:08:00;95632.13;;;5.03;100.00
33155;BME280;19511;42.682;23.332;2023-03-01T06:10:26;95569.09;;;4.64;100.00
33155;BME280;19511;42.682;23.332;2023-03-01T06:12:58;95656.84;;;5.06;100.00
33155;BME280;19511;42.682;23.332;2023-03-01T06:15:28;95656.63;;;5.15;100.00
33155;BME280;19511;42.682;23.332;2023-03-01T06:17:54;95648.19;;;5.04;100.00
33155;BME280;19511;42.682;23.332;2023-03-01T06:20:24;95666.16;;;5.02;100.00
33155;BME280;19511;42.682;23.332;2023-03-01T06:22:50;95538.53;;;4.22;100.00
33155;BME280;19511;42.682;23.332;2023-03-01T06:25:18;95652.81;;;5.00;100.00
33155;BME280;19511;42.682;23.332;2023-03-01T06:27:44;95664.81;;;5.12;100.00
33155;BME280;19511;42.682;23.332;2023-03-01T06:30:12;95661.53;;;5.06;100.00
33155;BME280;19511;42.682;23.332;2023-03-01T06:32:39;95667.81;;;5.06;100.00
33155;BME280;19511;42.682;23.332;2023-03-01T06:35:11;95659.88;;;5.01;100.00
33155;BME280;19511;42.682;23.332;2023-03-01T06:37:39;95665.88;;;5.07;100.00
33155;BME280;19511;42.682;23.332;2023-03-01T06:40:06;95656.78;;;5.03;100.00
33155;BME280;19511;42.682;23.332;2023-03-01T06:42:39;95650.13;;;5.04;100.00
33155;BME280;19511;42.682;23.332;2023-03-01T06:45:07;95654.69;;;4.96;100.00
33155;BME280;19511;42.682;23.332;2023-03-01T06:47:32;95600.38;;;4.63;100.00
33155;BME280;19511;42.682;23.332;2023-03-01T06:49:59;95669.63;;;5.18;100.00
33155;BME280;19511;42.682;23.332;2023-03-01T06:52:24;95552.03;;;4.51;100.00
33155;BME280;19511;42.682;23.332;2023-03-01T06:54:50;95658.00;;;5.25;100.00
33155;BME280;19511;42.682;23.332;2023-03-01T06:57:15;95649.28;;;5.19;100.00
33155;BME280;19511;42.682;23.332;2023-03-01T06:59:41;95668.28;;;5.32;100.00
33155;BME280;19511;42.682;23.332;2023-03-01T07:02:12;95669.88;;;5.33;100.00
33155;BME280;19511;42.682;23.332;2023-03-01T07:04:41;95554.88;;;4.58;100.00
33155;BME280;19511;42.682;23.332;2023-03-01T07:07:06;95633.97;;;5.18;100.00
33155;BME280;19511;42.682;23.332;2023-03-01T07:09:32;95670.88;;;5.44;100.00
33155;BME280;19511;42.682;23.332;2023-03-01T07:11:58;95659.91;;;5.44;100.00
33155;BME280;19511;42.682;23.332;2023-03-01T07:14:24;95673.19;;;5.42;100.00
33155;BME280;19511;42.682;23.332;2023-03-01T07:16:54;95636.66;;;5.38;100.00
33155;BME280;19511;42.682;23.332;2023-03-01T07:19:24;95668.69;;;5.53;100.00
33155;BME280;19511;42.682;23.332;2023-03-01T07:21:50;95663.25;;;5.57;100.00
33155;BME280;19511;42.682;23.332;2023-03-01T07:24:15;95650.81;;;5.40;100.00
33155;BME280;19511;42.682;23.332;2023-03-01T07:26:41;95643.44;;;5.44;100.00
33155;BME280;19511;42.682;23.332;2023-03-01T07:29:07;95628.13;;;5.43;100.00
33155;BME280;19511;42.682;23.332;2023-03-01T07:31:39;95644.59;;;5.43;100.00
33155;BME280;19511;42.682;23.332;2023-03-01T07:34:07;95644.13;;;5.61;100.00
33155;BME280;19511;42.682;23.332;2023-03-01T07:36:36;95655.00;;;5.77;100.00
33155;BME280;19511;42.682;23.332;2023-03-01T07:39:02;95642.25;;;5.88;100.00
33155;BME280;19511;42.682;23.332;2023-03-01T07:41:29;95642.84;;;6.01;100.00
33155;BME280;19511;42.682;23.332;2023-03-01T07:43:57;95625.50;;;5.97;100.00
33155;BME280;19511;42.682;23.332;2023-03-01T07:46:23;95622.28;;;5.91;100.00
33155;BME280;19511;42.682;23.332;2023-03-01T07:48:48;95643.53;;;5.98;100.00
33155;BME280;19511;42.682;23.332;2023-03-01T07:51:14;95514.03;;;5.15;100.00
33155;BME280;19511;42.682;23.332;2023-03-01T07:53:39;95638.38;;;6.16;100.00
33155;BME280;19511;42.682;23.332;2023-03-01T07:56:07;95646.97;;;6.14;100.00
33155;BME280;19511;42.682;23.332;2023-03-01T07:58:41;95594.53;;;5.73;100.00
33155;BME280;19511;42.682;23.332;2023-03-01T08:01:09;95626.44;;;6.04;100.00
33155;BME280;19511;42.682;23.332;2023-03-01T08:03:38;95623.53;;;6.20;100.00
33155;BME280;19511;42.682;23.332;2023-03-01T08:06:19;95631.44;;;6.26;100.00
33155;BME280;19511;42.682;23.332;2023-03-01T08:08:48;95625.31;;;6.36;100.00
33155;BME280;19511;42.682;23.332;2023-03-01T08:11:26;95619.84;;;6.40;100.00
33155;BME280;19511;42.682;23.332;2023-03-01T08:13:53;95605.53;;;6.53;100.00
33155;BME280;19511;42.682;23.332;2023-03-01T08:16:23;95574.91;;;6.25;100.00
33155;BME280;19511;42.682;23.332;2023-03-01T08:18:53;95623.16;;;6.52;100.00
33155;BME280;19511;42.682;23.332;2023-03-01T08:24:19;95600.06;;;6.27;100.00
33155;BME280;19511;42.682;23.332;2023-03-01T08:26:44;95599.16;;;6.46;100.00
33155;BME280;19511;42.682;23.332;2023-03-01T08:29:19;95618.25;;;6.65;100.00
33155;BME280;19511;42.682;23.332;2023-03-01T08:31:52;95603.59;;;6.54;100.00
33155;BME280;19511;42.682;23.332;2023-03-01T08:34:19;95608.03;;;6.66;100.00
33155;BME280;19511;42.682;23.332;2023-03-01T08:36:53;95616.88;;;6.82;100.00
33155;BME280;19511;42.682;23.332;2023-03-01T08:39:38;95614.63;;;6.92;100.00
33155;BME280;19511;42.682;23.332;2023-03-01T08:42:17;95607.16;;;6.89;100.00
33155;BME280;19511;42.682;23.332;2023-03-01T08:44:47;95613.75;;;6.84;100.00
33155;BME280;19511;42.682;23.332;2023-03-01T08:47:12;95606.06;;;6.63;100.00
33155;BME280;19511;42.682;23.332;2023-03-01T08:49:53;95576.59;;;6.33;100.00
33155;BME280;19511;42.682;23.332;2023-03-01T08:53:15;95610.47;;;6.71;100.00
33155;BME280;19511;42.682;23.332;2023-03-01T08:56:12;95612.53;;;6.81;100.00
33155;BME280;19511;42.682;23.332;2023-03-01T08:58:59;95625.22;;;6.90;100.00
33155;BME280;19511;42.682;23.332;2023-03-01T09:01:38;95624.72;;;6.80;100.00
33155;BME280;19511;42.682;23.332;2023-03-01T09:07:20;95595.91;;;7.05;100.00
33155;BME280;19511;42.682;23.332;2023-03-01T09:09:52;95605.84;;;7.13;100.00
33155;BME280;19511;42.682;23.332;2023-03-01T09:12:53;95601.97;;;7.17;100.00
33155;BME280;19511;42.682;23.332;2023-03-01T09:18:08;95607.44;;;7.14;100.00
33155;BME280;19511;42.682;23.332;2023-03-01T09:24:32;95601.22;;;6.86;100.00
33155;BME280;19511;42.682;23.332;2023-03-01T09:27:22;95494.94;;;6.30;100.00
33155;BME280;19511;42.682;23.332;2023-03-01T09:29:49;95608.53;;;7.09;100.00
33155;BME280;19511;42.682;23.332;2023-03-01T09:32:20;95585.22;;;6.96;100.00
33155;BME280;19511;42.682;23.332;2023-03-01T09:34:48;95587.66;;;7.05;100.00
33155;BME280;19511;42.682;23.332;2023-03-01T09:37:29;95608.84;;;7.38;100.00
33155;BME280;19511;42.682;23.332;2023-03-01T09:40:21;95592.53;;;7.18;100.00
33155;BME280;19511;42.682;23.332;2023-03-01T09:43:00;95596.16;;;7.26;100.00
33155;BME280;19511;42.682;23.332;2023-03-01T09:45:38;95581.53;;;7.18;100.00
33155;BME280;19511;42.682;23.332;2023-03-01T09:48:16;95596.25;;;7.37;100.00
33155;BME280;19511;42.682;23.332;2023-03-01T09:50:51;95590.47;;;7.49;100.00
33155;BME280;19511;42.682;23.332;2023-03-01T09:53:31;95581.41;;;7.45;100.00
33155;BME280;19511;42.682;23.332;2023-03-01T09:56:26;95579.31;;;7.76;100.00
33155;BME280;19511;42.682;23.332;2023-03-01T09:59:03;95554.34;;;7.55;100.00
33155;BME280;19511;42.682;23.332;2023-03-01T10:06:50;95547.22;;;7.50;100.00
33155;BME280;19511;42.682;23.332;2023-03-01T10:09:25;95546.63;;;7.71;100.00
33155;BME280;19511;42.682;23.332;2023-03-01T10:11:55;95564.38;;;7.77;100.00
33155;BME280;19511;42.682;23.332;2023-03-01T10:17:38;95559.56;;;7.71;100.00
33155;BME280;19511;42.682;23.332;2023-03-01T10:20:21;95565.59;;;7.87;100.00
33155;BME280;19511;42.682;23.332;2023-03-01T10:22:50;95573.53;;;7.92;100.00
33155;BME280;19511;42.682;23.332;2023-03-01T10:26:04;95561.00;;;8.06;100.00
33155;BME280;19511;42.682;23.332;2023-03-01T10:29:01;95555.53;;;8.09;100.00
33155;BME280;19511;42.682;23.332;2023-03-01T10:31:51;95557.03;;;7.99;100.00
33155;BME280;19511;42.682;23.332;2023-03-01T10:36:50;95551.97;;;8.05;100.00
33155;BME280;19511;42.682;23.332;2023-03-01T10:39:21;95461.66;;;7.73;100.00
33155;BME280;19511;42.682;23.332;2023-03-01T10:41:59;95558.00;;;8.29;100.00
33155;BME280;19511;42.682;23.332;2023-03-01T10:44:37;95441.09;;;7.56;100.00
33155;BME280;19511;42.682;23.332;2023-03-01T10:47:04;95471.91;;;7.76;100.00
33155;BME280;19511;42.682;23.332;2023-03-01T10:49:29;95482.06;;;7.65;100.00
33155;BME280;19511;42.682;23.332;2023-03-01T10:51:55;95434.56;;;7.23;100.00
33155;BME280;19511;42.682;23.332;2023-03-01T10:54:32;95555.38;;;7.88;100.00
33155;BME280;19511;42.682;23.332;2023-03-01T10:57:27;95467.69;;;7.38;100.00
33155;BME280;19511;42.682;23.332;2023-03-01T11:00:20;95532.25;;;7.99;100.00
33155;BME280;19511;42.682;23.332;2023-03-01T11:05:24;95545.41;;;8.28;100.00
33155;BME280;19511;42.682;23.332;2023-03-01T11:07:53;95466.81;;;7.82;100.00
33155;BME280;19511;42.682;23.332;2023-03-01T11:10:28;95441.13;;;7.60;100.00
33155;BME280;19511;42.682;23.332;2023-03-01T11:15:35;95523.63;;;8.08;100.00
33155;BME280;19511;42.682;23.332;2023-03-01T11:18:23;95544.53;;;8.13;100.00
33155;BME280;19511;42.682;23.332;2023-03-01T11:20:53;95517.28;;;8.00;100.00
33155;BME280;19511;42.682;23.332;2023-03-01T11:23:24;95536.66;;;8.11;100.00
33155;BME280;19511;42.682;23.332;2023-03-01T11:26:09;95443.31;;;7.36;100.00
33155;BME280;19511;42.682;23.332;2023-03-01T11:28:37;95534.66;;;8.08;100.00
33155;BME280;19511;42.682;23.332;2023-03-01T11:31:07;95526.03;;;8.13;100.00
33155;BME280;19511;42.682;23.332;2023-03-01T11:36:55;95481.38;;;7.82;100.00
33155;BME280;19511;42.682;23.332;2023-03-01T11:39:31;95448.22;;;7.61;100.00
33155;BME280;19511;42.682;23.332;2023-03-01T11:42:10;95517.81;;;8.21;100.00
33155;BME280;19511;42.682;23.332;2023-03-01T11:44:39;95494.16;;;8.16;100.00
33155;BME280;19511;42.682;23.332;2023-03-01T11:50:15;95504.56;;;8.52;100.00
33155;BME280;19511;42.682;23.332;2023-03-01T12:07:41;95496.31;;;8.52;100.00
33155;BME280;19511;42.682;23.332;2023-03-01T12:10:37;95463.63;;;8.54;100.00
33155;BME280;19511;42.682;23.332;2023-03-01T12:13:42;95482.19;;;8.78;100.00
33155;BME280;19511;42.682;23.332;2023-03-01T12:16:25;95485.00;;;8.93;100.00
33155;BME280;19511;42.682;23.332;2023-03-01T12:23:24;95480.28;;;8.97;100.00
33155;BME280;19511;42.682;23.332;2023-03-01T12:28:38;95477.53;;;8.97;100.00
33155;BME280;19511;42.682;23.332;2023-03-01T12:34:26;95475.88;;;8.60;100.00
33155;BME280;19511;42.682;23.332;2023-03-01T12:47:35;95458.78;;;8.25;100.00
33155;BME280;19511;42.682;23.332;2023-03-01T12:50:38;95475.28;;;8.18;100.00
33155;BME280;19511;42.682;23.332;2023-03-01T12:53:32;95465.44;;;8.21;100.00
33155;BME280;19511;42.682;23.332;2023-03-01T12:56:11;95354.53;;;7.46;100.00
33155;BME280;19511;42.682;23.332;2023-03-01T13:12:03;95454.47;;;8.35;100.00
33155;BME280;19511;42.682;23.332;2023-03-01T13:17:07;95463.19;;;8.44;100.00
33155;BME280;19511;42.682;23.332;2023-03-01T13:20:02;95465.94;;;8.44;100.00
33155;BME280;19511;42.682;23.332;2023-03-01T13:22:32;95466.78;;;8.52;100.00
33155;BME280;19511;42.682;23.332;2023-03-01T13:25:27;95413.03;;;8.06;100.00
33155;BME280;19511;42.682;23.332;2023-03-01T13:30:56;95479.00;;;8.55;100.00
33155;BME280;19511;42.682;23.332;2023-03-01T13:36:04;95465.13;;;8.40;100.00
33155;BME280;19511;42.682;23.332;2023-03-01T13:38:39;95469.81;;;8.32;100.00
33155;BME280;19511;42.682;23.332;2023-03-01T13:46:50;95451.72;;;8.39;100.00
33155;BME280;19511;42.682;23.332;2023-03-01T13:49:51;95430.75;;;8.12;100.00
33155;BME280;19511;42.682;23.332;2023-03-01T13:52:38;95459.59;;;8.29;100.00
33155;BME280;19511;42.682;23.332;2023-03-01T13:57:59;95456.31;;;8.06;100.00
33155;BME280;19511;42.682;23.332;2023-03-01T14:00:58;95459.47;;;8.04;100.00
33155;BME280;19511;42.682;23.332;2023-03-01T14:03:41;95461.78;;;7.95;100.00
33155;BME280;19511;42.682;23.332;2023-03-01T14:06:16;95349.38;;;7.38;100.00
33155;BME280;19511;42.682;23.332;2023-03-01T14:12:00;95463.47;;;8.14;100.00
33155;BME280;19511;42.682;23.332;2023-03-01T14:20:23;95460.69;;;8.17;100.00
33155;BME280;19511;42.682;23.332;2023-03-01T14:23:17;95461.97;;;8.38;100.00
33155;BME280;19511;42.682;23.332;2023-03-01T14:25:56;95409.38;;;7.80;100.00
33155;BME280;19511;42.682;23.332;2023-03-01T14:28:32;95457.56;;;8.15;100.00
33155;BME280;19511;42.682;23.332;2023-03-01T14:31:02;95456.00;;;8.22;100.00
33155;BME280;19511;42.682;23.332;2023-03-01T14:33:55;95453.13;;;7.93;100.00
33155;BME280;19511;42.682;23.332;2023-03-01T14:39:18;95453.03;;;7.75;100.00
33155;BME280;19511;42.682;23.332;2023-03-01T14:42:35;95459.66;;;7.70;100.00
33155;BME280;19511;42.682;23.332;2023-03-01T14:45:13;95445.78;;;7.52;100.00
33155;BME280;19511;42.682;23.332;2023-03-01T14:47:50;95461.19;;;7.64;100.00
33155;BME280;19511;42.682;23.332;2023-03-01T14:50:24;95457.97;;;7.51;100.00
33155;BME280;19511;42.682;23.332;2023-03-01T14:52:58;95431.09;;;7.30;100.00
33155;BME280;19511;42.682;23.332;2023-03-01T14:56:11;95452.44;;;7.47;100.00
33155;BME280;19511;42.682;23.332;2023-03-01T14:58:38;95451.63;;;7.43;100.00
33155;BME280;19511;42.682;23.332;2023-03-01T15:01:05;95447.22;;;7.35;100.00
33155;BME280;19511;42.682;23.332;2023-03-01T15:06:45;95450.81;;;7.39;100.00
33155;BME280;19511;42.682;23.332;2023-03-01T15:09:19;95435.34;;;7.24;100.00
33155;BME280;19511;42.682;23.332;2023-03-01T15:11:48;95434.31;;;7.39;100.00
33155;BME280;19511;42.682;23.332;2023-03-01T15:17:13;95439.34;;;7.30;100.00
33155;BME280;19511;42.682;23.332;2023-03-01T15:19:44;95435.47;;;7.38;100.00
33155;BME280;19511;42.682;23.332;2023-03-01T15:22:15;95433.75;;;7.19;100.00
33155;BME280;19511;42.682;23.332;2023-03-01T15:24:41;95353.19;;;6.63;100.00